Bauska, Latvia

1:24 AM EEST on September 30, 2016 (GMT +0300)
Riga International | | Change Station

Elev 30 ft 56.92 °N, 23.97 °E | Updated 4 minutes ago

Mostly Cloudy
Mostly Cloudy
63 °F
Feels Like 63 °F
N
13
Wind Variable Wind from SSW

Today
High -- | Low -- °F
--% Chance of Precip.
Yesterday
High -- | Low -- °F
Precip. -- in
Pressure 29.53 in
Visibility 6.2 miles
Clouds Few 1700 ft
Scattered Clouds 2700 ft
Mostly Cloudy 4900 ft
Dew Point 59 °F
Humidity 88%
Rainfall 0.00 in
Snow Depth Not available.
7:24 AM 7:00 PM
Waning Crescent, 1% visible
METAR EVRA 292220Z 21011KT 9999 FEW017 SCT027 BKN049 17/15 Q1000 NOSIG
Pressure 29.53 in
Visibility 6.2 miles
Clouds Few 1700 ft
Scattered Clouds 2700 ft
Mostly Cloudy 4900 ft
Dew Point 59 °F
Humidity 88%
Rainfall 0.00 in
Snow Depth Not available.
7:24 AM 7:00 PM
Waning Crescent, 1% visible
METAR EVRA 292220Z 21011KT 9999 FEW017 SCT027 BKN049 17/15 Q1000 NOSIG

10-Day Weather Forecast

×

Almanac

Astronomy

Sep. 30, 2016 Rise Set
Actual Time
Civil Twilight
Nautical Twilight
Astronomical Twilight
Moon
Length of Visible Light
Length of Day
Tomorrow will be .
, % of the Moon is Illuminated

Today's Extremes

Country Highs Country Lows

Community

WunderPhotos

Upload Photos

1,942,591 photos uploaded!

WunderBlog® & News

Nearby

Air Quality

  Air Quality AQ Index Pollutant
Not available.

Snow Depth

Station Depth Elevation

Earthquake Activity

City Distance Mag. Time & Date
Minimum magnitude displayed is 2.5.

Coastal Water Temperatures

Place Temperature

Stations

Nearby Weather Stations

Station Location Temp. Windchill Dew Point Humidity Wind Precip. Elev Updated Type